sensor_id;sensor_type;location;lat;lon;timestamp;temperature;humidity
6078;DHT22;3067;49.470;10.394;2023-10-08T00:02:10;17.40;47.90
6078;DHT22;3067;49.470;10.394;2023-10-08T00:04:37;17.40;48.10
6078;DHT22;3067;49.470;10.394;2023-10-08T00:07:04;17.40;48.10
6078;DHT22;3067;49.470;10.394;2023-10-08T00:09:33;17.40;48.00
6078;DHT22;3067;49.470;10.394;2023-10-08T00:12:04;17.40;48.10
6078;DHT22;3067;49.470;10.394;2023-10-08T00:14:34;17.40;48.20
6078;DHT22;3067;49.470;10.394;2023-10-08T00:17:10;17.50;48.40
6078;DHT22;3067;49.470;10.394;2023-10-08T00:19:38;17.50;48.50
6078;DHT22;3067;49.470;10.394;2023-10-08T00:22:05;17.50;48.40
6078;DHT22;3067;49.470;10.394;2023-10-08T00:24:34;17.50;48.60
6078;DHT22;3067;49.470;10.394;2023-10-08T00:27:01;17.50;48.50
6078;DHT22;3067;49.470;10.394;2023-10-08T00:29:34;17.50;48.80
6078;DHT22;3067;49.470;10.394;2023-10-08T00:32:05;17.50;49.00
6078;DHT22;3067;49.470;10.394;2023-10-08T00:34:37;17.40;48.90
6078;DHT22;3067;49.470;10.394;2023-10-08T00:37:07;17.40;49.20
6078;DHT22;3067;49.470;10.394;2023-10-08T00:39:36;17.40;49.20
6078;DHT22;3067;49.470;10.394;2023-10-08T00:42:06;17.40;49.50
6078;DHT22;3067;49.470;10.394;2023-10-08T00:44:35;17.40;49.50
6078;DHT22;3067;49.470;10.394;2023-10-08T00:47:07;17.40;49.60
6078;DHT22;3067;49.470;10.394;2023-10-08T00:49:37;17.40;49.70
6078;DHT22;3067;49.470;10.394;2023-10-08T00:52:30;17.40;49.80
6078;DHT22;3067;49.470;10.394;2023-10-08T00:55:04;17.40;49.90
6078;DHT22;3067;49.470;10.394;2023-10-08T00:57:47;17.40;50.00
6078;DHT22;3067;49.470;10.394;2023-10-08T01:00:20;17.40;50.00
6078;DHT22;3067;49.470;10.394;2023-10-08T01:02:49;17.40;50.20
6078;DHT22;3067;49.470;10.394;2023-10-08T01:05:25;17.40;50.20
6078;DHT22;3067;49.470;10.394;2023-10-08T01:08:08;17.30;50.30
6078;DHT22;3067;49.470;10.394;2023-10-08T01:10:38;17.30;50.40
6078;DHT22;3067;49.470;10.394;2023-10-08T01:13:09;17.30;50.40
6078;DHT22;3067;49.470;10.394;2023-10-08T01:15:42;17.20;50.60
6078;DHT22;3067;49.470;10.394;2023-10-08T01:18:10;17.20;50.70
6078;DHT22;3067;49.470;10.394;2023-10-08T01:20:42;17.20;50.90
6078;DHT22;3067;49.470;10.394;2023-10-08T01:23:19;17.20;51.00
6078;DHT22;3067;49.470;10.394;2023-10-08T01:25:49;17.20;51.00
6078;DHT22;3067;49.470;10.394;2023-10-08T01:28:18;17.20;51.10
6078;DHT22;3067;49.470;10.394;2023-10-08T01:30:51;17.20;51.20
6078;DHT22;3067;49.470;10.394;2023-10-08T01:33:20;17.20;51.30
6078;DHT22;3067;49.470;10.394;2023-10-08T01:35:54;17.20;51.50
6078;DHT22;3067;49.470;10.394;2023-10-08T01:38:28;17.20;51.60
6078;DHT22;3067;49.470;10.394;2023-10-08T01:40:56;17.20;51.60
6078;DHT22;3067;49.470;10.394;2023-10-08T01:43:28;17.10;51.80
6078;DHT22;3067;49.470;10.394;2023-10-08T01:45:55;17.00;51.90
6078;DHT22;3067;49.470;10.394;2023-10-08T01:48:22;17.00;52.00
6078;DHT22;3067;49.470;10.394;2023-10-08T01:51:02;17.00;52.00
6078;DHT22;3067;49.470;10.394;2023-10-08T01:53:36;17.00;52.20
6078;DHT22;3067;49.470;10.394;2023-10-08T01:56:04;17.00;52.30
6078;DHT22;3067;49.470;10.394;2023-10-08T01:58:31;17.00;52.30
6078;DHT22;3067;49.470;10.394;2023-10-08T02:00:59;17.00;52.50
6078;DHT22;3067;49.470;10.394;2023-10-08T02:03:26;17.00;52.60
6078;DHT22;3067;49.470;10.394;2023-10-08T02:05:54;17.00;52.70
6078;DHT22;3067;49.470;10.394;2023-10-08T02:08:25;17.00;52.80
6078;DHT22;3067;49.470;10.394;2023-10-08T02:10:54;16.90;52.80
6078;DHT22;3067;49.470;10.394;2023-10-08T02:13:22;16.90;53.00
6078;DHT22;3067;49.470;10.394;2023-10-08T02:15:50;16.90;53.10
6078;DHT22;3067;49.470;10.394;2023-10-08T02:18:18;16.90;53.20
6078;DHT22;3067;49.470;10.394;2023-10-08T02:20:45;16.90;53.40
6078;DHT22;3067;49.470;10.394;2023-10-08T02:23:14;16.90;53.50
6078;DHT22;3067;49.470;10.394;2023-10-08T02:25:41;16.80;53.60
6078;DHT22;3067;49.470;10.394;2023-10-08T02:28:10;16.90;53.60
6078;DHT22;3067;49.470;10.394;2023-10-08T02:30:38;16.80;53.70
6078;DHT22;3067;49.470;10.394;2023-10-08T02:33:06;16.90;53.70
6078;DHT22;3067;49.470;10.394;2023-10-08T02:35:40;16.90;53.80
6078;DHT22;3067;49.470;10.394;2023-10-08T02:38:08;16.90;53.70
6078;DHT22;3067;49.470;10.394;2023-10-08T02:40:37;16.90;53.70
6078;DHT22;3067;49.470;10.394;2023-10-08T02:43:12;17.00;53.70
6078;DHT22;3067;49.470;10.394;2023-10-08T02:45:40;16.90;53.80
6078;DHT22;3067;49.470;10.394;2023-10-08T02:48:07;16.90;53.90
6078;DHT22;3067;49.470;10.394;2023-10-08T02:50:38;16.90;53.80
6078;DHT22;3067;49.470;10.394;2023-10-08T02:53:06;16.90;54.00
6078;DHT22;3067;49.470;10.394;2023-10-08T02:55:37;16.90;54.10
6078;DHT22;3067;49.470;10.394;2023-10-08T02:58:11;16.80;54.20
6078;DHT22;3067;49.470;10.394;2023-10-08T03:00:40;16.80;54.40
6078;DHT22;3067;49.470;10.394;2023-10-08T03:03:07;16.80;54.50
6078;DHT22;3067;49.470;10.394;2023-10-08T03:05:43;16.70;54.70
6078;DHT22;3067;49.470;10.394;2023-10-08T03:08:12;16.70;54.80
6078;DHT22;3067;49.470;10.394;2023-10-08T03:10:39;16.70;54.80
6078;DHT22;3067;49.470;10.394;2023-10-08T03:13:07;16.70;54.80
6078;DHT22;3067;49.470;10.394;2023-10-08T03:15:40;16.70;55.00
6078;DHT22;3067;49.470;10.394;2023-10-08T03:18:12;16.70;54.90
6078;DHT22;3067;49.470;10.394;2023-10-08T03:20:40;16.70;54.90
6078;DHT22;3067;49.470;10.394;2023-10-08T03:23:11;16.70;54.90
6078;DHT22;3067;49.470;10.394;2023-10-08T03:25:51;16.70;54.90
6078;DHT22;3067;49.470;10.394;2023-10-08T03:28:22;16.70;55.10
6078;DHT22;3067;49.470;10.394;2023-10-08T03:30:54;16.70;55.10
6078;DHT22;3067;49.470;10.394;2023-10-08T03:33:30;16.70;55.10
6078;DHT22;3067;49.470;10.394;2023-10-08T03:36:00;16.60;55.30
6078;DHT22;3067;49.470;10.394;2023-10-08T03:38:35;16.60;55.50
6078;DHT22;3067;49.470;10.394;2023-10-08T03:41:16;16.60;55.70
6078;DHT22;3067;49.470;10.394;2023-10-08T03:43:44;16.50;55.80
6078;DHT22;3067;49.470;10.394;2023-10-08T03:46:20;16.50;55.80
6078;DHT22;3067;49.470;10.394;2023-10-08T03:48:49;16.50;55.90
6078;DHT22;3067;49.470;10.394;2023-10-08T03:51:18;16.50;55.90
6078;DHT22;3067;49.470;10.394;2023-10-08T03:53:47;16.50;56.00
6078;DHT22;3067;49.470;10.394;2023-10-08T03:56:41;16.50;56.10
6078;DHT22;3067;49.470;10.394;2023-10-08T03:59:11;16.50;56.20
6078;DHT22;3067;49.470;10.394;2023-10-08T04:01:41;16.50;56.20
6078;DHT22;3067;49.470;10.394;2023-10-08T04:04:09;16.50;56.30
6078;DHT22;3067;49.470;10.394;2023-10-08T04:06:40;16.50;56.50
6078;DHT22;3067;49.470;10.394;2023-10-08T04:09:14;16.60;56.30
6078;DHT22;3067;49.470;10.394;2023-10-08T04:11:50;16.60;56.40
6078;DHT22;3067;49.470;10.394;2023-10-08T04:14:23;16.60;56.40
6078;DHT22;3067;49.470;10.394;2023-10-08T04:16:52;16.60;56.40
6078;DHT22;3067;49.470;10.394;2023-10-08T04:19:20;16.50;56.50
6078;DHT22;3067;49.470;10.394;2023-10-08T04:21:52;16.50;56.60
6078;DHT22;3067;49.470;10.394;2023-10-08T04:24:24;16.50;56.80
6078;DHT22;3067;49.470;10.394;2023-10-08T04:27:00;16.40;57.00
6078;DHT22;3067;49.470;10.394;2023-10-08T04:29:28;16.40;57.00
6078;DHT22;3067;49.470;10.394;2023-10-08T04:31:59;16.40;57.20
6078;DHT22;3067;49.470;10.394;2023-10-08T04:34:37;16.40;57.20
6078;DHT22;3067;49.470;10.394;2023-10-08T04:37:10;16.40;57.30
6078;DHT22;3067;49.470;10.394;2023-10-08T04:39:39;16.20;57.60
6078;DHT22;3067;49.470;10.394;2023-10-08T04:42:12;16.10;58.00
6078;DHT22;3067;49.470;10.394;2023-10-08T04:44:40;16.10;58.00
6078;DHT22;3067;49.470;10.394;2023-10-08T04:47:09;16.10;58.10
6078;DHT22;3067;49.470;10.394;2023-10-08T04:49:56;16.10;58.20
6078;DHT22;3067;49.470;10.394;2023-10-08T04:52:23;16.10;58.30
6078;DHT22;3067;49.470;10.394;2023-10-08T04:54:51;16.00;58.50
6078;DHT22;3067;49.470;10.394;2023-10-08T04:57:20;16.00;58.70
6078;DHT22;3067;49.470;10.394;2023-10-08T04:59:49;16.00;58.70
6078;DHT22;3067;49.470;10.394;2023-10-08T05:02:18;16.00;58.80
6078;DHT22;3067;49.470;10.394;2023-10-08T05:04:46;15.90;59.10
6078;DHT22;3067;49.470;10.394;2023-10-08T05:07:22;15.90;59.30
6078;DHT22;3067;49.470;10.394;2023-10-08T05:10:04;15.90;59.40
6078;DHT22;3067;49.470;10.394;2023-10-08T05:12:56;15.90;59.50
6078;DHT22;3067;49.470;10.394;2023-10-08T05:15:40;15.80;59.90
6078;DHT22;3067;49.470;10.394;2023-10-08T05:18:17;15.80;60.10
6078;DHT22;3067;49.470;10.394;2023-10-08T05:20:49;15.80;60.40
6078;DHT22;3067;49.470;10.394;2023-10-08T05:23:49;15.80;60.50
6078;DHT22;3067;49.470;10.394;2023-10-08T05:26:38;15.70;60.50
6078;DHT22;3067;49.470;10.394;2023-10-08T05:29:11;15.80;60.50
6078;DHT22;3067;49.470;10.394;2023-10-08T05:32:17;15.80;60.50
6078;DHT22;3067;49.470;10.394;2023-10-08T05:35:06;15.80;60.50
6078;DHT22;3067;49.470;10.394;2023-10-08T05:37:51;15.80;60.50
6078;DHT22;3067;49.470;10.394;2023-10-08T05:40:28;15.70;60.60
6078;DHT22;3067;49.470;10.394;2023-10-08T05:43:09;15.80;60.60
6078;DHT22;3067;49.470;10.394;2023-10-08T05:45:59;15.80;60.50
6078;DHT22;3067;49.470;10.394;2023-10-08T05:48:46;15.80;60.50
6078;DHT22;3067;49.470;10.394;2023-10-08T05:51:28;15.80;60.30
6078;DHT22;3067;49.470;10.394;2023-10-08T05:54:11;15.80;60.40
6078;DHT22;3067;49.470;10.394;2023-10-08T05:56:51;15.90;60.30
6078;DHT22;3067;49.470;10.394;2023-10-08T05:59:32;16.00;60.20
6078;DHT22;3067;49.470;10.394;2023-10-08T06:02:05;16.00;60.10
6078;DHT22;3067;49.470;10.394;2023-10-08T06:04:52;16.00;60.10
6078;DHT22;3067;49.470;10.394;2023-10-08T06:07:37;16.00;59.90
6078;DHT22;3067;49.470;10.394;2023-10-08T06:10:14;16.10;59.70
6078;DHT22;3067;49.470;10.394;2023-10-08T06:13:08;16.10;59.70
6078;DHT22;3067;49.470;10.394;2023-10-08T06:15:40;16.10;59.70
6078;DHT22;3067;49.470;10.394;2023-10-08T06:18:14;16.20;59.80
6078;DHT22;3067;49.470;10.394;2023-10-08T06:20:40;16.10;59.80
6078;DHT22;3067;49.470;10.394;2023-10-08T06:23:11;16.10;59.70
6078;DHT22;3067;49.470;10.394;2023-10-08T06:25:41;16.10;59.70
6078;DHT22;3067;49.470;10.394;2023-10-08T06:28:14;16.10;59.70
6078;DHT22;3067;49.470;10.394;2023-10-08T06:30:44;16.20;59.80
6078;DHT22;3067;49.470;10.394;2023-10-08T06:33:11;16.20;59.80
6078;DHT22;3067;49.470;10.394;2023-10-08T06:35:39;16.20;60.00
6078;DHT22;3067;49.470;10.394;2023-10-08T06:38:11;16.20;59.80
6078;DHT22;3067;49.470;10.394;2023-10-08T06:40:41;16.20;60.00
6078;DHT22;3067;49.470;10.394;2023-10-08T06:43:09;16.20;60.00
6078;DHT22;3067;49.470;10.394;2023-10-08T06:45:48;16.20;60.10
6078;DHT22;3067;49.470;10.394;2023-10-08T06:48:18;16.20;60.00
6078;DHT22;3067;49.470;10.394;2023-10-08T06:50:46;16.10;60.00
6078;DHT22;3067;49.470;10.394;2023-10-08T06:53:16;16.20;60.00
6078;DHT22;3067;49.470;10.394;2023-10-08T06:55:44;16.20;60.00
6078;DHT22;3067;49.470;10.394;2023-10-08T06:58:14;16.20;59.90
6078;DHT22;3067;49.470;10.394;2023-10-08T07:00:42;16.20;59.70
6078;DHT22;3067;49.470;10.394;2023-10-08T07:03:15;16.20;60.00
6078;DHT22;3067;49.470;10.394;2023-10-08T07:05:45;16.20;59.80
6078;DHT22;3067;49.470;10.394;2023-10-08T07:08:22;16.30;59.80
6078;DHT22;3067;49.470;10.394;2023-10-08T07:10:50;16.40;60.00
6078;DHT22;3067;49.470;10.394;2023-10-08T07:13:17;16.40;60.00
6078;DHT22;3067;49.470;10.394;2023-10-08T07:15:48;16.50;60.00
6078;DHT22;3067;49.470;10.394;2023-10-08T07:18:15;16.60;59.80
6078;DHT22;3067;49.470;10.394;2023-10-08T07:20:51;16.70;59.30
6078;DHT22;3067;49.470;10.394;2023-10-08T07:23:21;16.70;59.00
6078;DHT22;3067;49.470;10.394;2023-10-08T07:25:53;16.70;59.10
6078;DHT22;3067;49.470;10.394;2023-10-08T07:28:24;16.80;59.20
6078;DHT22;3067;49.470;10.394;2023-10-08T07:30:52;16.80;59.00
6078;DHT22;3067;49.470;10.394;2023-10-08T07:33:20;16.80;58.90
6078;DHT22;3067;49.470;10.394;2023-10-08T07:35:51;16.90;58.70
6078;DHT22;3067;49.470;10.394;2023-10-08T07:38:25;17.00;59.00
6078;DHT22;3067;49.470;10.394;2023-10-08T07:40:55;17.00;58.70
6078;DHT22;3067;49.470;10.394;2023-10-08T07:43:22;17.00;58.70
6078;DHT22;3067;49.470;10.394;2023-10-08T07:45:50;17.20;58.90
6078;DHT22;3067;49.470;10.394;2023-10-08T07:48:20;17.20;58.40
6078;DHT22;3067;49.470;10.394;2023-10-08T07:50:50;17.20;57.90
6078;DHT22;3067;49.470;10.394;2023-10-08T07:53:17;17.20;57.60
6078;DHT22;3067;49.470;10.394;2023-10-08T07:55:48;17.20;57.70
6078;DHT22;3067;49.470;10.394;2023-10-08T07:58:15;17.20;57.40
6078;DHT22;3067;49.470;10.394;2023-10-08T08:00:43;17.30;57.60
6078;DHT22;3067;49.470;10.394;2023-10-08T08:03:20;17.30;57.40
6078;DHT22;3067;49.470;10.394;2023-10-08T08:05:47;17.20;57.40
6078;DHT22;3067;49.470;10.394;2023-10-08T08:08:19;17.30;57.70
6078;DHT22;3067;49.470;10.394;2023-10-08T08:10:49;17.40;57.60
6078;DHT22;3067;49.470;10.394;2023-10-08T08:13:24;17.50;57.00
6078;DHT22;3067;49.470;10.394;2023-10-08T08:15:54;17.50;57.10
6078;DHT22;3067;49.470;10.394;2023-10-08T08:18:25;17.50;56.60
6078;DHT22;3067;49.470;10.394;2023-10-08T08:20:59;17.50;56.90
6078;DHT22;3067;49.470;10.394;2023-10-08T08:23:29;17.60;56.70
6078;DHT22;3067;49.470;10.394;2023-10-08T08:25:57;17.60;56.80
6078;DHT22;3067;49.470;10.394;2023-10-08T08:28:37;17.80;56.50
6078;DHT22;3067;49.470;10.394;2023-10-08T08:31:05;18.00;56.50
6078;DHT22;3067;49.470;10.394;2023-10-08T08:33:40;18.00;56.40
6078;DHT22;3067;49.470;10.394;2023-10-08T08:36:19;18.10;56.20
6078;DHT22;3067;49.470;10.394;2023-10-08T08:38:48;18.30;55.30
6078;DHT22;3067;49.470;10.394;2023-10-08T08:41:17;18.40;55.30
6078;DHT22;3067;49.470;10.394;2023-10-08T08:43:47;18.40;55.20
6078;DHT22;3067;49.470;10.394;2023-10-08T08:46:15;18.50;55.20
6078;DHT22;3067;49.470;10.394;2023-10-08T08:48:43;18.50;54.90
6078;DHT22;3067;49.470;10.394;2023-10-08T08:51:14;18.60;54.40
6078;DHT22;3067;49.470;10.394;2023-10-08T08:53:41;18.70;55.10
6078;DHT22;3067;49.470;10.394;2023-10-08T08:56:09;18.80;53.90
6078;DHT22;3067;49.470;10.394;2023-10-08T08:58:39;18.80;54.10
6078;DHT22;3067;49.470;10.394;2023-10-08T09:01:11;18.70;53.90
6078;DHT22;3067;49.470;10.394;2023-10-08T09:03:39;18.60;53.70
6078;DHT22;3067;49.470;10.394;2023-10-08T09:06:06;18.50;53.90
6078;DHT22;3067;49.470;10.394;2023-10-08T09:08:34;18.50;54.20
6078;DHT22;3067;49.470;10.394;2023-10-08T09:11:02;18.40;54.80
6078;DHT22;3067;49.470;10.394;2023-10-08T09:13:31;18.40;54.40
6078;DHT22;3067;49.470;10.394;2023-10-08T09:16:07;18.30;54.50
6078;DHT22;3067;49.470;10.394;2023-10-08T09:18:34;18.30;54.70
6078;DHT22;3067;49.470;10.394;2023-10-08T09:21:11;18.30;54.90
6078;DHT22;3067;49.470;10.394;2023-10-08T09:23:43;18.30;54.70
6078;DHT22;3067;49.470;10.394;2023-10-08T09:26:13;18.30;54.70
6078;DHT22;3067;49.470;10.394;2023-10-08T09:28:44;18.30;55.00
6078;DHT22;3067;49.470;10.394;2023-10-08T09:31:14;18.30;55.20
6078;DHT22;3067;49.470;10.394;2023-10-08T09:33:43;18.30;55.00
6078;DHT22;3067;49.470;10.394;2023-10-08T09:36:10;18.40;54.70
6078;DHT22;3067;49.470;10.394;2023-10-08T09:38:45;18.40;54.80
6078;DHT22;3067;49.470;10.394;2023-10-08T09:41:14;18.40;54.90
6078;DHT22;3067;49.470;10.394;2023-10-08T09:43:42;18.40;54.70
6078;DHT22;3067;49.470;10.394;2023-10-08T09:46:18;18.50;55.30
6078;DHT22;3067;49.470;10.394;2023-10-08T09:48:49;18.60;54.70
6078;DHT22;3067;49.470;10.394;2023-10-08T09:51:18;18.70;55.10
6078;DHT22;3067;49.470;10.394;2023-10-08T09:53:52;18.70;54.60
6078;DHT22;3067;49.470;10.394;2023-10-08T09:56:24;18.80;54.50
6078;DHT22;3067;49.470;10.394;2023-10-08T09:58:55;18.90;54.70
6078;DHT22;3067;49.470;10.394;2023-10-08T10:01:24;18.90;54.60
6078;DHT22;3067;49.470;10.394;2023-10-08T10:03:52;19.00;54.00
6078;DHT22;3067;49.470;10.394;2023-10-08T10:06:19;19.00;53.60
6078;DHT22;3067;49.470;10.394;2023-10-08T10:08:48;19.10;53.80
6078;DHT22;3067;49.470;10.394;2023-10-08T10:11:15;19.10;53.40
6078;DHT22;3067;49.470;10.394;2023-10-08T10:13:44;19.10;53.30
6078;DHT22;3067;49.470;10.394;2023-10-08T10:16:17;19.20;53.70
6078;DHT22;3067;49.470;10.394;2023-10-08T10:18:48;19.30;53.70
6078;DHT22;3067;49.470;10.394;2023-10-08T10:21:30;19.40;52.90
6078;DHT22;3067;49.470;10.394;2023-10-08T10:23:58;19.50;53.20
6078;DHT22;3067;49.470;10.394;2023-10-08T10:26:27;19.50;53.60
6078;DHT22;3067;49.470;10.394;2023-10-08T10:29:18;19.50;53.30
6078;DHT22;3067;49.470;10.394;2023-10-08T10:31:46;19.50;53.10
6078;DHT22;3067;49.470;10.394;2023-10-08T10:34:16;19.50;53.00
6078;DHT22;3067;49.470;10.394;2023-10-08T10:36:45;19.50;53.10
6078;DHT22;3067;49.470;10.394;2023-10-08T10:39:15;19.50;53.30
6078;DHT22;3067;49.470;10.394;2023-10-08T10:41:44;19.70;53.30
6078;DHT22;3067;49.470;10.394;2023-10-08T10:44:12;19.70;52.70
6078;DHT22;3067;49.470;10.394;2023-10-08T10:46:41;19.70;52.90
6078;DHT22;3067;49.470;10.394;2023-10-08T10:49:08;19.80;52.60
6078;DHT22;3067;49.470;10.394;2023-10-08T10:51:47;19.70;52.20
6078;DHT22;3067;49.470;10.394;2023-10-08T10:54:18;19.70;52.30
6078;DHT22;3067;49.470;10.394;2023-10-08T10:56:47;19.70;52.80
6078;DHT22;3067;49.470;10.394;2023-10-08T10:59:27;19.70;53.10
6078;DHT22;3067;49.470;10.394;2023-10-08T11:01:53;19.70;53.10
6078;DHT22;3067;49.470;10.394;2023-10-08T11:04:33;19.70;53.40
6078;DHT22;3067;49.470;10.394;2023-10-08T11:07:13;19.70;53.70
6078;DHT22;3067;49.470;10.394;2023-10-08T11:09:42;19.70;53.20
6078;DHT22;3067;49.470;10.394;2023-10-08T11:12:12;19.70;53.70
6078;DHT22;3067;49.470;10.394;2023-10-08T11:14:46;19.70;53.40
6078;DHT22;3067;49.470;10.394;2023-10-08T11:17:15;19.70;53.60
6078;DHT22;3067;49.470;10.394;2023-10-08T11:19:42;19.70;53.70
6078;DHT22;3067;49.470;10.394;2023-10-08T11:22:13;19.70;52.90
6078;DHT22;3067;49.470;10.394;2023-10-08T11:24:43;19.70;52.70
6078;DHT22;3067;49.470;10.394;2023-10-08T11:27:13;19.70;53.00
6078;DHT22;3067;49.470;10.394;2023-10-08T11:29:55;19.70;52.60
6078;DHT22;3067;49.470;10.394;2023-10-08T11:32:24;19.70;52.90
6078;DHT22;3067;49.470;10.394;2023-10-08T11:34:55;19.70;52.60
6078;DHT22;3067;49.470;10.394;2023-10-08T11:37:30;19.70;53.10
6078;DHT22;3067;49.470;10.394;2023-10-08T11:39:59;19.80;53.40
6078;DHT22;3067;49.470;10.394;2023-10-08T11:42:34;19.80;52.80
6078;DHT22;3067;49.470;10.394;2023-10-08T11:45:10;19.80;53.10
6078;DHT22;3067;49.470;10.394;2023-10-08T11:47:50;19.80;52.70
6078;DHT22;3067;49.470;10.394;2023-10-08T11:50:23;19.90;52.50
6078;DHT22;3067;49.470;10.394;2023-10-08T11:52:58;19.90;52.80
6078;DHT22;3067;49.470;10.394;2023-10-08T11:55:28;20.00;52.60
6078;DHT22;3067;49.470;10.394;2023-10-08T11:57:56;20.00;52.80
6078;DHT22;3067;49.470;10.394;2023-10-08T12:00:23;20.00;52.40
6078;DHT22;3067;49.470;10.394;2023-10-08T12:02:52;20.10;52.60
6078;DHT22;3067;49.470;10.394;2023-10-08T12:05:21;20.20;52.80
6078;DHT22;3067;49.470;10.394;2023-10-08T12:07:50;20.30;52.80
6078;DHT22;3067;49.470;10.394;2023-10-08T12:10:19;20.30;52.20
6078;DHT22;3067;49.470;10.394;2023-10-08T12:12:50;20.30;52.50
6078;DHT22;3067;49.470;10.394;2023-10-08T12:15:18;20.30;53.10
6078;DHT22;3067;49.470;10.394;2023-10-08T12:17:49;20.30;52.50
6078;DHT22;3067;49.470;10.394;2023-10-08T12:20:37;20.30;52.80
6078;DHT22;3067;49.470;10.394;2023-10-08T12:23:04;20.20;53.40
6078;DHT22;3067;49.470;10.394;2023-10-08T12:25:33;20.30;53.60
6078;DHT22;3067;49.470;10.394;2023-10-08T13:30:33;20.50;53.30
6078;DHT22;3067;49.470;10.394;2023-10-08T13:33:00;20.30;53.30
6078;DHT22;3067;49.470;10.394;2023-10-08T13:35:27;20.20;53.70
6078;DHT22;3067;49.470;10.394;2023-10-08T13:37:54;20.20;54.10
6078;DHT22;3067;49.470;10.394;2023-10-08T13:40:21;20.30;54.00
6078;DHT22;3067;49.470;10.394;2023-10-08T13:42:58;20.20;54.20
6078;DHT22;3067;49.470;10.394;2023-10-08T13:45:25;20.20;54.40
6078;DHT22;3067;49.470;10.394;2023-10-08T13:47:56;20.20;54.40
6078;DHT22;3067;49.470;10.394;2023-10-08T13:50:25;20.20;54.20
6078;DHT22;3067;49.470;10.394;2023-10-08T13:52:56;20.30;54.70
6078;DHT22;3067;49.470;10.394;2023-10-08T13:55:24;20.40;54.10
6078;DHT22;3067;49.470;10.394;2023-10-08T13:57:51;20.50;54.00
6078;DHT22;3067;49.470;10.394;2023-10-08T14:00:19;20.50;53.80
6078;DHT22;3067;49.470;10.394;2023-10-08T14:02:51;20.50;53.90
6078;DHT22;3067;49.470;10.394;2023-10-08T14:05:20;20.50;53.70
6078;DHT22;3067;49.470;10.394;2023-10-08T14:07:50;20.50;53.80
6078;DHT22;3067;49.470;10.394;2023-10-08T14:10:18;20.50;54.00
6078;DHT22;3067;49.470;10.394;2023-10-08T14:12:46;20.50;53.70
6078;DHT22;3067;49.470;10.394;2023-10-08T14:15:15;20.60;54.00
6078;DHT22;3067;49.470;10.394;2023-10-08T14:17:44;20.60;54.00
6078;DHT22;3067;49.470;10.394;2023-10-08T14:20:14;20.60;54.30
6078;DHT22;3067;49.470;10.394;2023-10-08T14:22:49;20.60;54.10
6078;DHT22;3067;49.470;10.394;2023-10-08T14:25:25;20.60;54.40
6078;DHT22;3067;49.470;10.394;2023-10-08T14:27:53;20.50;54.40
6078;DHT22;3067;49.470;10.394;2023-10-08T14:30:30;20.60;54.70
6078;DHT22;3067;49.470;10.394;2023-10-08T14:32:58;20.60;54.70
6078;DHT22;3067;49.470;10.394;2023-10-08T14:35:29;20.60;54.70
6078;DHT22;3067;49.470;10.394;2023-10-08T14:38:23;20.70;54.30
6078;DHT22;3067;49.470;10.394;2023-10-08T14:41:08;20.80;54.40
6078;DHT22;3067;49.470;10.394;2023-10-08T14:43:52;20.90;54.30
6078;DHT22;3067;49.470;10.394;2023-10-08T14:46:19;21.00;54.20
6078;DHT22;3067;49.470;10.394;2023-10-08T14:48:46;21.10;53.70
6078;DHT22;3067;49.470;10.394;2023-10-08T14:51:14;21.10;53.40
6078;DHT22;3067;49.470;10.394;2023-10-08T14:53:46;21.20;53.60
6078;DHT22;3067;49.470;10.394;2023-10-08T14:56:13;21.40;53.20
6078;DHT22;3067;49.470;10.394;2023-10-08T14:58:41;21.40;52.30
6078;DHT22;3067;49.470;10.394;2023-10-08T15:01:09;21.50;52.40
6078;DHT22;3067;49.470;10.394;2023-10-08T15:03:39;21.50;52.20
6078;DHT22;3067;49.470;10.394;2023-10-08T15:06:06;21.50;52.20
6078;DHT22;3067;49.470;10.394;2023-10-08T15:08:37;21.50;52.50
6078;DHT22;3067;49.470;10.394;2023-10-08T15:11:06;21.50;52.70
6078;DHT22;3067;49.470;10.394;2023-10-08T15:13:36;21.50;52.50
6078;DHT22;3067;49.470;10.394;2023-10-08T15:16:04;21.50;52.20
6078;DHT22;3067;49.470;10.394;2023-10-08T15:18:31;21.40;52.00
6078;DHT22;3067;49.470;10.394;2023-10-08T15:21:08;21.30;52.50
6078;DHT22;3067;49.470;10.394;2023-10-08T15:23:35;21.30;52.70
6078;DHT22;3067;49.470;10.394;2023-10-08T15:26:03;21.30;52.80
6078;DHT22;3067;49.470;10.394;2023-10-08T15:28:32;21.20;53.00
6078;DHT22;3067;49.470;10.394;2023-10-08T15:30:59;21.10;53.00
6078;DHT22;3067;49.470;10.394;2023-10-08T15:33:26;21.10;53.30
6078;DHT22;3067;49.470;10.394;2023-10-08T15:35:54;21.10;53.60
6078;DHT22;3067;49.470;10.394;2023-10-08T15:38:22;21.10;53.70
6078;DHT22;3067;49.470;10.394;2023-10-08T15:40:50;21.00;53.60
6078;DHT22;3067;49.470;10.394;2023-10-08T15:43:17;20.90;54.00
6078;DHT22;3067;49.470;10.394;2023-10-08T15:45:46;20.90;54.20
6078;DHT22;3067;49.470;10.394;2023-10-08T15:48:13;20.90;54.20
6078;DHT22;3067;49.470;10.394;2023-10-08T15:50:40;20.90;54.10
6078;DHT22;3067;49.470;10.394;2023-10-08T15:53:07;20.90;54.20
6078;DHT22;3067;49.470;10.394;2023-10-08T15:55:35;20.90;54.00
6078;DHT22;3067;49.470;10.394;2023-10-08T15:58:02;21.00;54.00
6078;DHT22;3067;49.470;10.394;2023-10-08T16:00:29;21.00;54.00
6078;DHT22;3067;49.470;10.394;2023-10-08T16:03:00;21.00;54.20
6078;DHT22;3067;49.470;10.394;2023-10-08T16:05:27;21.10;54.30
6078;DHT22;3067;49.470;10.394;2023-10-08T16:07:54;21.10;54.00
6078;DHT22;3067;49.470;10.394;2023-10-08T16:10:24;21.10;53.90
6078;DHT22;3067;49.470;10.394;2023-10-08T16:12:52;21.10;53.90
6078;DHT22;3067;49.470;10.394;2023-10-08T16:15:19;21.10;54.10
6078;DHT22;3067;49.470;10.394;2023-10-08T16:17:47;21.10;54.20
6078;DHT22;3067;49.470;10.394;2023-10-08T16:20:17;21.10;54.30
6078;DHT22;3067;49.470;10.394;2023-10-08T16:22:46;21.00;54.40
6078;DHT22;3067;49.470;10.394;2023-10-08T16:25:15;20.90;54.60
6078;DHT22;3067;49.470;10.394;2023-10-08T16:27:42;20.80;54.60
6078;DHT22;3067;49.470;10.394;2023-10-08T16:30:15;20.70;54.80
6078;DHT22;3067;49.470;10.394;2023-10-08T16:32:43;20.60;55.00
6078;DHT22;3067;49.470;10.394;2023-10-08T16:35:10;20.50;55.30
6078;DHT22;3067;49.470;10.394;2023-10-08T16:37:39;20.50;55.50
6078;DHT22;3067;49.470;10.394;2023-10-08T16:40:09;20.30;55.70
6078;DHT22;3067;49.470;10.394;2023-10-08T16:42:37;20.30;56.00
6078;DHT22;3067;49.470;10.394;2023-10-08T16:45:05;20.10;56.20
6078;DHT22;3067;49.470;10.394;2023-10-08T16:47:33;20.10;56.60
6078;DHT22;3067;49.470;10.394;2023-10-08T16:50:00;20.00;56.90
6078;DHT22;3067;49.470;10.394;2023-10-08T16:52:28;19.90;56.20
6078;DHT22;3067;49.470;10.394;2023-10-08T16:54:57;19.70;55.80
6078;DHT22;3067;49.470;10.394;2023-10-08T16:57:24;19.50;55.80
6078;DHT22;3067;49.470;10.394;2023-10-08T16:59:51;19.50;56.00
6078;DHT22;3067;49.470;10.394;2023-10-08T17:02:18;19.40;56.40
6078;DHT22;3067;49.470;10.394;2023-10-08T17:04:45;19.40;56.40
6078;DHT22;3067;49.470;10.394;2023-10-08T17:07:12;19.20;57.30
6078;DHT22;3067;49.470;10.394;2023-10-08T17:09:41;18.90;58.40
6078;DHT22;3067;49.470;10.394;2023-10-08T17:12:09;18.70;58.90
6078;DHT22;3067;49.470;10.394;2023-10-08T17:14:45;18.50;59.40